Ardmore, South Dakota
Current Conditions -  °F | °C
As of 4:02 AM on Friday 31 Oct 2014 (Local Time) from KCUT Reporting Station
Haze Haze  
Wind Chill: 27°   Ceiling: 100
Heat Index: 27°   Visibility: 0.75mi
Dew Point: 25°   Wind: 0mph
Humidity: 92%   Direction: NA
Pressure: 30.36"   Gusts: NA
Location:  43.1994°N, 103.759°W
Report Text: KCUT 311002Z AUTO 00000KT 3/4SM BR OVC001 M03/M04 A3036 RMK AO2 T10281039
Loading
Personal Weather Stations






























Interactive Weather Map New forecast layout! Learn more

10-Day Weather Forecast

Advertisements
Track Severe Weather on mobile